Time;durP1;ratioP1;P1;durP2;ratioP2;P2;SDS_P1;SDS_P2;PMS_P1;PMS_P2;Temp;Humidity;BMP_temperature;BMP_pressure;BME280_temperature;BME280_humidity;BME280_pressure;Samples;Min_cycle;Max_cycle;Signal;HPM_P1;HPM_P2
2021/03/13 00:00:47;;;;;;;4.30;1.93;;;5.70;97.30;;;;;;4996552;28;20475;-82
2021/03/13 00:03:14;;;;;;;2.27;1.83;;;5.70;97.30;;;;;;4996472;28;20921;-82
2021/03/13 00:05:42;;;;;;;5.00;2.00;;;5.70;97.30;;;;;;4996424;28;20603;-82
2021/03/13 00:08:08;;;;;;;1.97;1.30;;;5.70;97.30;;;;;;4996217;28;20417;-82
2021/03/13 00:10:34;;;;;;;2.50;1.77;;;5.80;97.30;;;;;;4995684;28;20551;-82
2021/03/13 00:13:00;;;;;;;4.33;1.73;;;5.70;97.30;;;;;;4995934;28;20413;-81
2021/03/13 00:15:26;;;;;;;2.33;1.20;;;5.70;97.30;;;;;;4997249;28;20440;-81
2021/03/13 00:17:53;;;;;;;3.03;1.70;;;5.70;97.30;;;;;;4995836;28;20640;-82
2021/03/13 00:20:24;;;;;;;5.90;1.70;;;5.70;97.30;;;;;;4999540;28;20188;-82
2021/03/13 00:22:51;;;;;;;2.80;1.83;;;5.70;97.30;;;;;;5000658;28;20420;-82
2021/03/13 00:25:18;;;;;;;5.53;1.80;;;5.80;97.30;;;;;;5000127;28;20499;-82
2021/03/13 00:27:47;;;;;;;4.40;2.23;;;5.80;97.30;;;;;;5001007;28;20808;-81
2021/03/13 00:30:18;;;;;;;4.80;2.00;;;5.80;97.30;;;;;;5000713;28;20464;-81
2021/03/13 00:32:45;;;;;;;3.43;1.80;;;5.80;97.30;;;;;;5000357;28;20429;-82
2021/03/13 00:35:12;;;;;;;1.50;1.40;;;5.80;97.30;;;;;;5001892;28;20440;-82
2021/03/13 00:37:39;;;;;;;4.73;1.93;;;5.90;97.30;;;;;;5000671;28;20442;-81
2021/03/13 00:40:07;;;;;;;2.57;1.73;;;5.90;97.30;;;;;;5001960;28;20436;-81
2021/03/13 00:42:33;;;;;;;2.40;1.80;;;5.90;97.30;;;;;;5000149;28;20417;-82
2021/03/13 00:44:59;;;;;;;1.80;1.50;;;6.00;97.30;;;;;;5002195;28;20931;-82
2021/03/13 00:47:27;;;;;;;2.40;1.73;;;6.10;97.30;;;;;;5000310;28;20174;-81
2021/03/13 00:49:58;;;;;;;2.97;1.67;;;6.10;97.30;;;;;;5000252;28;20452;-81
2021/03/13 00:52:26;;;;;;;3.53;1.83;;;6.10;97.30;;;;;;5000486;28;20444;-81
2021/03/13 00:54:52;;;;;;;3.57;1.70;;;6.00;97.30;;;;;;5000022;28;20437;-81
2021/03/13 00:57:18;;;;;;;2.30;2.10;;;6.00;97.30;;;;;;5000228;28;20444;-81
2021/03/13 00:59:43;;;;;;;3.77;1.50;;;6.00;97.30;;;;;;5003338;28;20439;-81
2021/03/13 01:02:09;;;;;;;2.30;1.73;;;6.00;97.30;;;;;;5019627;28;20180;-82
2021/03/13 01:04:35;;;;;;;2.10;1.93;;;6.10;97.30;;;;;;5018914;28;20233;-82
2021/03/13 01:07:00;;;;;;;3.60;1.83;;;6.10;97.30;;;;;;5019785;28;20188;-82
2021/03/13 01:09:26;;;;;;;3.17;1.70;;;6.10;97.30;;;;;;5019110;28;20244;-81
2021/03/13 01:11:52;;;;;;;3.60;1.90;;;6.10;97.30;;;;;;5019188;28;20181;-81
2021/03/13 01:14:18;;;;;;;2.97;1.63;;;6.10;97.30;;;;;;5018447;28;20745;-82
2021/03/13 01:16:43;;;;;;;1.40;1.30;;;6.10;97.30;;;;;;5020369;28;20207;-82
2021/03/13 01:19:09;;;;;;;1.63;1.57;;;6.10;97.30;;;;;;5017286;28;20420;-82
2021/03/13 01:21:35;;;;;;;4.70;2.10;;;6.10;97.30;;;;;;5019217;28;20763;-81
2021/03/13 01:24:01;;;;;;;3.50;1.80;;;6.10;97.30;;;;;;5020035;28;20427;-80
2021/03/13 01:26:27;;;;;;;1.57;1.50;;;6.10;97.30;;;;;;5020122;28;20185;-81
2021/03/13 01:28:52;;;;;;;2.40;1.50;;;6.10;97.30;;;;;;5021168;28;20192;-81
2021/03/13 01:31:18;;;;;;;3.90;1.50;;;6.10;97.30;;;;;;5020067;28;20173;-80
2021/03/13 01:33:46;;;;;;;3.80;1.60;;;6.10;97.30;;;;;;5020732;28;20636;-83
2021/03/13 01:36:11;;;;;;;3.40;1.80;;;6.10;97.30;;;;;;5020782;28;20194;-82
2021/03/13 01:38:37;;;;;;;1.73;1.67;;;6.00;97.30;;;;;;5021151;28;20443;-82
2021/03/13 01:41:03;;;;;;;1.60;1.50;;;6.00;97.30;;;;;;5020448;28;20181;-82
2021/03/13 01:43:30;;;;;;;4.10;1.70;;;6.10;97.30;;;;;;5019854;28;20181;-82
2021/03/13 01:45:55;;;;;;;2.37;1.30;;;6.10;97.30;;;;;;5019380;28;20468;-81
2021/03/13 01:48:30;;;;;;;2.63;1.80;;;6.10;97.30;;;;;;5019419;28;20420;-82
2021/03/13 01:50:59;;;;;;;2.90;1.73;;;6.10;97.30;;;;;;5019827;28;20200;-81
2021/03/13 01:53:25;;;;;;;2.50;1.57;;;6.10;97.30;;;;;;5020639;28;20459;-81
2021/03/13 01:55:51;;;;;;;3.67;1.77;;;6.10;97.30;;;;;;5020896;28;20514;-81
2021/03/13 01:58:17;;;;;;;4.20;1.47;;;6.10;97.30;;;;;;5019646;28;20441;-81
2021/03/13 02:00:42;;;;;;;2.23;1.57;;;6.20;97.30;;;;;;5019094;28;20994;-81
2021/03/13 02:03:08;;;;;;;2.40;1.60;;;6.10;97.30;;;;;;5019669;28;20185;-81
2021/03/13 02:05:42;;;;;;;3.73;1.40;;;6.20;97.30;;;;;;5018812;28;20228;-81
2021/03/13 02:08:45;;;;;;;2.00;1.70;;;6.20;97.30;;;;;;5018973;28;20174;-81
2021/03/13 02:11:29;;;;;;;3.33;1.97;;;6.10;97.30;;;;;;5018329;28;20452;-81
2021/03/13 02:13:59;;;;;;;3.60;1.80;;;6.10;97.30;;;;;;5018213;28;20918;-81
2021/03/13 02:16:34;;;;;;;2.87;1.93;;;6.10;97.30;;;;;;5018476;28;20809;-81
2021/03/13 02:19:23;;;;;;;2.10;1.60;;;6.10;97.30;;;;;;5017963;28;20439;-81
2021/03/13 02:21:55;;;;;;;2.87;2.00;;;6.10;97.30;;;;;;5019063;28;20504;-80
2021/03/13 02:24:26;;;;;;;2.63;1.70;;;6.00;97.30;;;;;;5018150;28;20541;-81
2021/03/13 02:27:01;;;;;;;2.20;1.80;;;6.00;97.30;;;;;;5018389;28;20408;-81
2021/03/13 02:29:41;;;;;;;1.63;1.60;;;6.00;97.30;;;;;;5019697;28;20809;-81
2021/03/13 02:32:10;;;;;;;4.47;1.97;;;6.00;97.30;;;;;;5019437;28;20483;-81
2021/03/13 02:34:39;;;;;;;4.20;1.80;;;6.00;97.30;;;;;;5019313;28;20439;-81
2021/03/13 02:37:19;;;;;;;3.80;1.80;;;6.00;97.30;;;;;;5017707;28;20940;-81
2021/03/13 02:39:49;;;;;;;5.40;1.80;;;6.00;97.30;;;;;;5017063;28;20416;-81
2021/03/13 02:42:15;;;;;;;3.93;1.90;;;6.00;97.30;;;;;;5017523;28;20427;-81
2021/03/13 02:44:44;;;;;;;2.63;1.70;;;6.00;97.30;;;;;;5018029;28;20436;-82
2021/03/13 02:47:12;;;;;;;3.60;1.80;;;6.00;97.30;;;;;;5018074;28;20943;-81
2021/03/13 02:49:38;;;;;;;2.77;2.23;;;6.00;97.30;;;;;;5018776;28;21255;-81
2021/03/13 02:52:07;;;;;;;4.03;1.73;;;6.00;97.30;;;;;;5018774;28;20458;-82
2021/03/13 02:54:34;;;;;;;3.00;1.77;;;6.00;97.30;;;;;;5018082;28;20474;-81
2021/03/13 02:57:01;;;;;;;2.60;1.70;;;6.00;97.30;;;;;;5016983;28;20503;-82
2021/03/13 02:59:28;;;;;;;2.07;1.30;;;5.90;97.30;;;;;;5016396;28;20446;-81
2021/03/13 03:01:56;;;;;;;3.23;1.80;;;6.00;97.30;;;;;;5016957;28;20420;-82
2021/03/13 03:04:22;;;;;;;3.30;2.20;;;6.00;97.30;;;;;;5016382;28;20464;-82
2021/03/13 03:06:51;;;;;;;2.10;1.63;;;5.90;97.30;;;;;;5017326;28;20470;-81
2021/03/13 03:09:18;;;;;;;3.17;1.90;;;5.90;97.30;;;;;;5017104;28;20495;-81
2021/03/13 03:11:45;;;;;;;2.03;1.70;;;5.90;97.30;;;;;;5017302;28;20788;-81
2021/03/13 03:14:13;;;;;;;2.73;2.33;;;5.90;97.30;;;;;;5017231;28;20456;-82
2021/03/13 03:16:41;;;;;;;12.13;1.77;;;5.90;97.30;;;;;;5017001;28;20463;-82
2021/03/13 03:19:09;;;;;;;1.67;1.60;;;5.90;97.30;;;;;;5017665;28;20495;-82
2021/03/13 03:21:39;;;;;;;2.27;1.77;;;5.90;97.30;;;;;;5018020;28;20420;-81
2021/03/13 03:24:06;;;;;;;2.03;1.60;;;5.90;97.30;;;;;;5017753;28;20420;-81
2021/03/13 03:26:34;;;;;;;3.00;1.70;;;5.90;97.30;;;;;;5019461;28;20503;-80
2021/03/13 03:28:59;;;;;;;3.33;1.90;;;5.90;97.30;;;;;;5018250;28;20435;-81
2021/03/13 03:31:25;;;;;;;1.97;1.50;;;5.90;97.30;;;;;;5017976;28;20931;-81
2021/03/13 03:33:51;;;;;;;1.43;1.37;;;6.00;97.30;;;;;;5019166;28;20169;-82
2021/03/13 03:36:16;;;;;;;1.67;1.57;;;6.00;97.30;;;;;;5017819;28;20227;-79
2021/03/13 03:38:42;;;;;;;1.77;1.60;;;6.00;97.30;;;;;;5018251;28;20604;-82
2021/03/13 03:41:08;;;;;;;2.37;1.80;;;6.00;97.30;;;;;;5019397;28;20661;-81
2021/03/13 03:43:45;;;;;;;4.50;1.60;;;6.00;97.30;;;;;;5017007;28;20184;-81
2021/03/13 03:46:12;;;;;;;2.83;1.37;;;6.00;97.30;;;;;;5017395;28;20208;-82
2021/03/13 03:48:39;;;;;;;2.20;2.00;;;6.00;97.30;;;;;;5018466;28;20423;-81
2021/03/13 03:51:10;;;;;;;1.80;1.53;;;6.00;97.30;;;;;;5017458;28;20470;-80
2021/03/13 03:53:40;;;;;;;2.20;1.73;;;6.00;97.30;;;;;;5017855;28;20926;-81
2021/03/13 03:56:07;;;;;;;1.60;1.50;;;6.00;97.30;;;;;;5021747;28;20439;-81
2021/03/13 03:58:44;;;;;;;1.63;1.60;;;6.00;97.30;;;;;;5021142;28;20440;-81
2021/03/13 04:01:11;;;;;;;1.80;1.60;;;5.90;97.30;;;;;;5020705;28;20424;-81
2021/03/13 04:03:44;;;;;;;1.60;1.50;;;5.90;97.30;;;;;;5021285;28;20416;-81
2021/03/13 04:06:12;;;;;;;3.27;2.23;;;5.90;97.30;;;;;;5022163;28;20471;-81
2021/03/13 04:08:42;;;;;;;2.07;1.70;;;5.80;97.30;;;;;;5022445;28;20930;-81
2021/03/13 04:11:12;;;;;;;1.83;1.40;;;5.80;97.30;;;;;;5022232;28;20459;-81
2021/03/13 04:13:38;;;;;;;2.87;1.70;;;5.70;97.30;;;;;;5022229;28;20416;-81
2021/03/13 04:16:05;;;;;;;2.37;1.83;;;5.70;97.30;;;;;;5023252;28;20435;-81
2021/03/13 04:18:31;;;;;;;2.43;1.80;;;5.60;97.30;;;;;;5022530;28;20412;-81
2021/03/13 04:20:56;;;;;;;3.90;2.23;;;5.60;97.30;;;;;;5021568;28;20447;-82
2021/03/13 04:23:25;;;;;;;1.77;1.70;;;5.50;97.30;;;;;;5021664;28;20794;-81
2021/03/13 04:25:53;;;;;;;1.90;1.80;;;5.50;97.30;;;;;;5022030;28;20467;-81
2021/03/13 04:28:20;;;;;;;4.73;1.80;;;5.40;97.30;;;;;;5021494;28;20965;-81
2021/03/13 04:30:48;;;;;;;2.30;1.90;;;5.40;97.30;;;;;;5022062;28;20452;-82
2021/03/13 04:33:18;;;;;;;2.60;1.80;;;5.30;97.30;;;;;;5021617;28;20416;-81
2021/03/13 04:35:46;;;;;;;2.40;1.83;;;5.30;97.30;;;;;;5031950;28;20455;-82
2021/03/13 04:38:16;;;;;;;3.80;2.33;;;5.20;97.30;;;;;;5031156;28;20420;-82
2021/03/13 04:40:42;;;;;;;3.00;2.10;;;5.20;97.30;;;;;;5030808;28;20477;-82
2021/03/13 04:43:09;;;;;;;5.80;2.37;;;5.20;97.30;;;;;;5021536;28;20459;-82
2021/03/13 04:45:35;;;;;;;5.43;2.10;;;5.20;97.30;;;;;;5018540;28;20478;-81
2021/03/13 04:48:01;;;;;;;5.43;2.43;;;5.20;97.30;;;;;;5020016;28;20424;-82
2021/03/13 04:50:30;;;;;;;2.73;2.03;;;5.20;97.30;;;;;;5018980;28;20455;-82
2021/03/13 04:52:56;;;;;;;2.60;2.07;;;5.20;97.30;;;;;;5019620;28;20440;-83
2021/03/13 04:55:21;;;;;;;5.03;2.60;;;5.30;97.30;;;;;;5019617;28;20431;-82
2021/03/13 04:57:48;;;;;;;2.90;2.17;;;5.30;97.30;;;;;;5021439;28;20173;-82
2021/03/13 05:00:15;;;;;;;2.73;2.30;;;5.30;97.30;;;;;;5019866;28;20280;-81
2021/03/13 05:02:41;;;;;;;6.40;2.70;;;5.30;97.30;;;;;;5020109;28;20431;-81
2021/03/13 05:05:08;;;;;;;5.20;2.43;;;5.40;97.30;;;;;;5018150;28;20839;-82
2021/03/13 05:07:34;;;;;;;4.67;2.60;;;5.40;97.30;;;;;;5019121;28;20215;-82
2021/03/13 05:10:00;;;;;;;4.90;2.87;;;5.40;97.30;;;;;;5019712;28;20464;-82
2021/03/13 05:12:26;;;;;;;4.90;2.83;;;5.40;97.30;;;;;;5019922;28;20173;-82
2021/03/13 05:14:51;;;;;;;7.07;3.10;;;5.40;97.30;;;;;;5019008;28;20436;-82
2021/03/13 05:17:17;;;;;;;4.50;2.70;;;5.50;97.30;;;;;;5020739;28;20178;-81
2021/03/13 05:19:45;;;;;;;5.70;3.00;;;5.50;97.30;;;;;;5019462;28;20263;-82
2021/03/13 05:22:11;;;;;;;3.90;2.63;;;5.50;97.30;;;;;;5020529;28;20412;-81
2021/03/13 05:24:39;;;;;;;4.37;2.60;;;5.50;97.30;;;;;;5019232;28;20490;-81
2021/03/13 05:27:04;;;;;;;4.10;2.80;;;5.60;97.30;;;;;;5019527;28;20186;-82
2021/03/13 05:29:30;;;;;;;4.40;2.73;;;5.60;97.30;;;;;;5020010;28;20831;-81
2021/03/13 05:31:56;;;;;;;4.53;2.73;;;5.60;97.30;;;;;;5019094;28;20185;-81
2021/03/13 05:34:22;;;;;;;5.70;3.43;;;5.70;97.30;;;;;;5018707;28;21048;-82
2021/03/13 05:36:47;;;;;;;6.20;2.80;;;5.70;97.30;;;;;;5019213;28;20173;-81
2021/03/13 05:39:13;;;;;;;5.00;2.93;;;5.80;97.30;;;;;;5019989;28;20184;-82
2021/03/13 05:41:41;;;;;;;6.83;3.40;;;5.80;97.30;;;;;;5018384;28;20560;-82
2021/03/13 05:44:07;;;;;;;5.93;2.87;;;5.90;97.30;;;;;;5018767;28;20408;-81
2021/03/13 05:46:37;;;;;;;3.93;3.00;;;5.90;97.30;;;;;;5020293;28;20503;-81
2021/03/13 05:49:08;;;;;;;4.90;2.77;;;6.00;97.30;;;;;;5019460;28;20783;-81
2021/03/13 05:51:47;;;;;;;3.50;2.93;;;6.00;97.30;;;;;;5019264;28;20457;-82
2021/03/13 05:54:17;;;;;;;3.20;2.80;;;6.00;97.30;;;;;;5019984;28;20416;-81
2021/03/13 05:56:44;;;;;;;3.43;2.70;;;6.00;97.30;;;;;;5019670;28;20427;-82
2021/03/13 05:59:11;;;;;;;5.43;2.80;;;6.10;97.30;;;;;;5021244;28;20415;-81
2021/03/13 06:01:37;;;;;;;3.93;2.47;;;6.10;97.30;;;;;;5018192;28;20404;-83
2021/03/13 06:04:03;;;;;;;3.13;2.57;;;6.10;97.30;;;;;;5020300;28;20418;-82
2021/03/13 06:06:34;;;;;;;4.30;2.87;;;6.10;97.30;;;;;;5019566;28;20605;-81
2021/03/13 06:09:00;;;;;;;3.37;2.63;;;6.10;97.30;;;;;;5002650;28;20177;-81
2021/03/13 06:11:26;;;;;;;4.50;2.60;;;6.10;97.30;;;;;;5018399;28;20463;-80
2021/03/13 06:13:52;;;;;;;5.43;3.07;;;6.10;97.30;;;;;;5018969;28;20416;-82
2021/03/13 06:16:17;;;;;;;2.67;2.30;;;6.20;97.30;;;;;;5020366;28;20193;-82
2021/03/13 06:18:52;;;;;;;3.53;2.70;;;6.20;97.30;;;;;;5019391;28;20185;-81
2021/03/13 06:21:31;;;;;;;5.17;2.60;;;6.20;97.30;;;;;;5019526;28;20632;-80
2021/03/13 06:24:01;;;;;;;3.50;2.70;;;6.20;97.30;;;;;;5019216;28;20422;-81
2021/03/13 06:26:29;;;;;;;3.50;2.90;;;6.20;97.30;;;;;;5021159;28;20396;-83
2021/03/13 06:28:56;;;;;;;4.77;2.80;;;6.20;97.30;;;;;;5019371;28;20431;-83
2021/03/13 06:31:23;;;;;;;5.27;2.83;;;6.20;97.30;;;;;;5020227;28;20439;-81
2021/03/13 06:33:49;;;;;;;5.43;2.80;;;6.30;97.30;;;;;;5022087;28;20409;-81
2021/03/13 06:36:21;;;;;;;5.90;2.70;;;6.30;97.30;;;;;;5006964;28;20920;-81
2021/03/13 06:38:47;;;;;;;3.27;2.30;;;6.40;97.30;;;;;;5013898;28;20416;-80
2021/03/13 06:41:18;;;;;;;5.77;2.87;;;6.40;97.30;;;;;;5016019;28;20423;-81
2021/03/13 06:43:46;;;;;;;2.47;2.10;;;6.40;97.30;;;;;;5011073;28;20433;-82
2021/03/13 06:46:20;;;;;;;3.80;2.13;;;6.50;97.30;;;;;;5013340;28;20486;-82
2021/03/13 06:48:52;;;;;;;5.30;2.40;;;6.50;97.30;;;;;;5014809;28;20424;-82
2021/03/13 06:51:38;;;;;;;3.37;2.70;;;6.50;97.30;;;;;;5010613;28;20478;-82
2021/03/13 06:54:08;;;;;;;2.43;2.33;;;6.60;97.30;;;;;;5017597;28;20411;-82
2021/03/13 06:56:55;;;;;;;2.73;2.10;;;6.60;97.30;;;;;;5014848;28;20411;-81
2021/03/13 06:59:35;;;;;;;2.90;2.17;;;6.60;97.30;;;;;;5007895;28;20420;-79
2021/03/13 07:02:08;;;;;;;3.50;2.50;;;6.70;97.30;;;;;;5015293;28;20456;-81
2021/03/13 07:04:45;;;;;;;2.67;2.23;;;6.70;97.30;;;;;;5017512;28;20476;-82
2021/03/13 07:07:12;;;;;;;2.37;2.10;;;6.70;97.30;;;;;;5006227;28;20677;-80
2021/03/13 07:09:43;;;;;;;3.20;2.07;;;6.80;97.30;;;;;;5012912;28;20461;-80
2021/03/13 07:12:26;;;;;;;2.00;1.80;;;6.80;97.30;;;;;;5019370;28;20485;-80
2021/03/13 07:14:53;;;;;;;2.37;2.10;;;6.80;97.30;;;;;;5014568;28;20530;-81
2021/03/13 07:17:20;;;;;;;3.43;1.87;;;6.90;97.30;;;;;;5014680;28;20413;-81
2021/03/13 07:19:46;;;;;;;5.10;2.00;;;7.00;97.30;;;;;;5014762;28;20463;-81
2021/03/13 07:22:13;;;;;;;3.10;1.80;;;7.00;97.30;;;;;;5005558;28;20421;-81
2021/03/13 07:24:43;;;;;;;1.70;1.67;;;7.10;97.30;;;;;;5006383;28;20205;-81
2021/03/13 07:27:11;;;;;;;2.30;1.70;;;7.20;97.30;;;;;;5002848;28;20428;-81
2021/03/13 07:29:40;;;;;;;3.30;1.50;;;7.20;97.30;;;;;;5004665;28;20496;-81
2021/03/13 07:32:08;;;;;;;1.50;1.40;;;7.30;97.30;;;;;;5006808;28;20421;-81
2021/03/13 07:34:37;;;;;;;1.50;1.43;;;7.50;97.30;;;;;;5003888;28;20455;-80
2021/03/13 07:37:04;;;;;;;1.57;1.17;;;7.60;97.30;;;;;;5006546;28;20907;-79
2021/03/13 07:39:37;;;;;;;1.53;1.50;;;7.60;97.30;;;;;;5006707;28;20424;-80
2021/03/13 07:42:19;;;;;;;1.67;1.40;;;7.70;97.30;;;;;;5005689;28;20443;-80
2021/03/13 07:44:46;;;;;;;1.90;1.50;;;7.80;97.30;;;;;;5005171;28;20438;-80
2021/03/13 07:47:14;;;;;;;1.77;1.13;;;7.80;97.30;;;;;;5004011;28;20424;-82
2021/03/13 07:49:41;;;;;;;1.43;1.33;;;7.90;97.30;;;;;;5004068;28;20479;-80
2021/03/13 07:52:09;;;;;;;1.33;1.33;;;8.00;97.30;;;;;;5003616;28;20417;-80
2021/03/13 07:54:43;;;;;;;1.43;1.33;;;8.00;97.30;;;;;;5007035;28;20502;-80
2021/03/13 07:57:10;;;;;;;1.30;1.30;;;8.00;97.30;;;;;;5002068;28;20500;-81
2021/03/13 07:59:53;;;;;;;1.40;1.30;;;8.00;97.30;;;;;;5004759;28;20415;-81
2021/03/13 08:02:30;;;;;;;1.70;1.20;;;8.00;97.30;;;;;;5002160;28;20432;-79
2021/03/13 08:05:46;;;;;;;1.30;1.20;;;8.00;97.30;;;;;;5003978;28;20456;-80
2021/03/13 08:08:11;;;;;;;1.70;1.33;;;8.00;97.30;;;;;;5003340;28;20424;-81
2021/03/13 08:10:47;;;;;;;1.30;1.20;;;8.00;97.30;;;;;;5004728;28;20457;-80
2021/03/13 08:13:28;;;;;;;1.17;1.00;;;8.00;97.30;;;;;;5005282;28;20198;-81
2021/03/13 08:16:14;;;;;;;1.73;1.10;;;8.10;97.30;;;;;;5006752;28;20447;-82
2021/03/13 08:18:50;;;;;;;1.17;1.10;;;8.20;97.30;;;;;;5004768;28;20416;-80
2021/03/13 08:21:19;;;;;;;1.23;1.17;;;8.20;97.30;;;;;;5008684;28;20404;-81
2021/03/13 08:23:53;;;;;;;2.47;1.50;;;8.30;97.30;;;;;;5007115;28;20745;-81
2021/03/13 08:26:21;;;;;;;1.30;1.20;;;8.40;97.30;;;;;;5014662;28;20455;-81
2021/03/13 08:28:46;;;;;;;1.10;1.00;;;8.50;97.30;;;;;;5017762;28;20443;-81
2021/03/13 08:31:24;;;;;;;1.20;1.20;;;8.60;97.30;;;;;;5016846;28;20463;-81
2021/03/13 08:34:17;;;;;;;2.23;1.30;;;8.70;97.30;;;;;;5014596;28;20178;-82
2021/03/13 08:36:46;;;;;;;1.20;1.20;;;8.70;97.30;;;;;;4992917;28;20425;-80
2021/03/13 08:39:17;;;;;;;1.33;1.20;;;8.70;97.30;;;;;;4998112;28;20413;-80
2021/03/13 08:41:43;;;;;;;1.90;1.60;;;8.70;97.30;;;;;;5019985;28;20424;-81
2021/03/13 08:44:14;;;;;;;1.30;1.20;;;8.80;97.30;;;;;;4999703;28;20493;-81
2021/03/13 08:47:07;;;;;;;2.33;1.20;;;8.80;97.30;;;;;;4998589;28;20177;-80
2021/03/13 08:49:34;;;;;;;1.50;1.50;;;8.90;97.30;;;;;;4998939;28;20463;-82
2021/03/13 08:52:09;;;;;;;1.20;1.10;;;8.90;97.30;;;;;;4998678;28;20421;-81
2021/03/13 08:54:38;;;;;;;1.63;1.53;;;8.90;97.20;;;;;;4999874;28;20508;-81
2021/03/13 08:57:07;;;;;;;1.90;1.20;;;8.90;97.30;;;;;;4998844;28;20429;-81
2021/03/13 08:59:33;;;;;;;1.50;1.33;;;8.90;97.00;;;;;;4997999;28;20421;-81
2021/03/13 09:02:11;;;;;;;1.40;1.20;;;8.90;97.20;;;;;;4997930;28;20449;-80
2021/03/13 09:04:38;;;;;;;1.33;1.23;;;8.90;97.20;;;;;;4997714;28;20480;-81
2021/03/13 09:07:05;;;;;;;1.50;1.40;;;9.00;97.30;;;;;;4996657;28;20429;-81
2021/03/13 09:09:33;;;;;;;1.53;1.43;;;9.00;97.20;;;;;;5010616;28;20485;-81
2021/03/13 09:12:20;;;;;;;2.07;1.47;;;9.00;97.20;;;;;;5013303;28;20428;-81
2021/03/13 09:14:51;;;;;;;1.50;1.40;;;9.00;97.30;;;;;;5019480;28;20522;-80
2021/03/13 09:17:22;;;;;;;2.90;1.50;;;9.00;97.30;;;;;;5016031;28;20485;-81
2021/03/13 09:19:49;;;;;;;2.23;1.53;;;9.00;97.30;;;;;;5018866;28;20421;-80
2021/03/13 09:22:25;;;;;;;1.77;1.33;;;9.10;97.10;;;;;;5018193;28;20978;-81
2021/03/13 09:25:04;;;;;;;2.00;1.50;;;9.10;96.90;;;;;;5018175;28;20448;-81
2021/03/13 09:27:32;;;;;;;3.97;1.70;;;9.10;97.10;;;;;;5018454;28;20781;-81
2021/03/13 09:29:59;;;;;;;1.60;1.50;;;9.20;96.90;;;;;;5020670;28;20464;-83
2021/03/13 09:32:26;;;;;;;8.33;1.80;;;9.20;96.90;;;;;;5028360;28;20443;-81
2021/03/13 09:34:54;;;;;;;1.60;1.50;;;9.20;97.00;;;;;;5029204;28;20420;-82
2021/03/13 09:37:20;;;;;;;2.73;1.47;;;9.20;96.80;;;;;;5028968;28;20409;-82
2021/03/13 09:40:18;;;;;;;3.10;1.53;;;9.30;97.00;;;;;;5019319;28;20418;-82
2021/03/13 09:42:46;;;;;;;3.03;1.87;;;9.30;96.80;;;;;;4998468;28;20184;-82
2021/03/13 09:45:20;;;;;;;6.90;1.77;;;9.40;96.70;;;;;;5016580;28;20463;-80
2021/03/13 09:47:55;;;;;;;2.33;1.67;;;9.40;96.40;;;;;;5015935;28;20973;-80
2021/03/13 09:50:26;;;;;;;1.47;1.30;;;9.50;96.30;;;;;;5017627;28;20447;-81
2021/03/13 09:52:52;;;;;;;1.60;1.50;;;9.50;96.20;;;;;;5015947;28;20412;-80
2021/03/13 09:55:23;;;;;;;3.73;1.90;;;9.60;96.40;;;;;;5016878;28;20446;-80
2021/03/13 09:57:55;;;;;;;1.50;1.40;;;9.60;96.10;;;;;;5015713;28;20169;-80
2021/03/13 10:00:23;;;;;;;2.00;1.80;;;9.70;95.90;;;;;;5018604;28;20416;-81
2021/03/13 10:02:50;;;;;;;1.77;1.67;;;9.70;96.10;;;;;;5016726;28;20479;-80
2021/03/13 10:05:20;;;;;;;2.50;1.90;;;9.80;95.70;;;;;;5017578;28;20474;-80
2021/03/13 10:07:48;;;;;;;4.10;1.90;;;9.80;95.80;;;;;;5017185;28;20416;-81
2021/03/13 10:10:20;;;;;;;2.70;1.30;;;9.90;95.50;;;;;;5016525;28;20486;-80
2021/03/13 10:12:54;;;;;;;1.83;1.80;;;9.90;95.10;;;;;;5017099;28;20447;-80
2021/03/13 10:15:20;;;;;;;2.53;1.77;;;9.90;95.00;;;;;;5015441;28;20443;-80
2021/03/13 10:17:58;;;;;;;1.60;1.40;;;9.90;95.20;;;;;;5016604;28;20412;-80
2021/03/13 10:20:27;;;;;;;3.80;1.90;;;9.90;95.20;;;;;;5016377;28;20177;-80
2021/03/13 10:22:53;;;;;;;2.30;1.90;;;10.00;94.90;;;;;;5016843;28;20417;-81
2021/03/13 10:25:19;;;;;;;1.90;1.30;;;9.90;94.80;;;;;;5015993;28;20424;-80
2021/03/13 10:27:44;;;;;;;1.63;1.40;;;9.90;94.90;;;;;;5015199;28;20420;-81
2021/03/13 10:30:12;;;;;;;1.70;1.40;;;10.00;94.40;;;;;;5017703;28;20205;-80
2021/03/13 10:32:40;;;;;;;5.20;1.77;;;10.00;94.50;;;;;;5019002;28;20173;-80
2021/03/13 10:35:16;;;;;;;3.77;1.60;;;10.00;94.50;;;;;;5018320;28;20436;-80
2021/03/13 10:37:52;;;;;;;1.50;1.40;;;10.10;94.20;;;;;;5016653;28;20412;-80
2021/03/13 10:40:36;;;;;;;6.63;1.70;;;10.10;94.00;;;;;;5016646;28;20423;-81
2021/03/13 10:43:38;;;;;;;1.53;1.43;;;10.30;93.40;;;;;;5017556;28;20465;-82
2021/03/13 10:46:18;;;;;;;2.23;1.40;;;10.30;93.00;;;;;;5015250;28;20467;-80
2021/03/13 10:48:47;;;;;;;1.87;1.50;;;10.30;93.40;;;;;;4997077;28;20416;-80
2021/03/13 10:51:29;;;;;;;2.90;1.50;;;10.40;93.00;;;;;;4996988;28;20464;-80
2021/03/13 10:53:57;;;;;;;4.10;1.60;;;10.40;93.20;;;;;;4998404;28;20435;-80
2021/03/13 10:56:23;;;;;;;3.00;1.50;;;10.40;92.70;;;;;;4997148;28;20424;-80
2021/03/13 10:58:51;;;;;;;4.87;1.87;;;10.40;92.80;;;;;;4997939;28;20417;-81
2021/03/13 11:01:19;;;;;;;11.53;1.50;;;10.40;93.00;;;;;;4999773;28;20441;-80
2021/03/13 11:03:48;;;;;;;4.80;1.90;;;10.40;92.80;;;;;;4997494;28;20405;-80
2021/03/13 11:06:30;;;;;;;4.17;2.10;;;10.40;92.90;;;;;;4996385;28;20987;-80
2021/03/13 11:08:58;;;;;;;7.87;1.73;;;10.40;92.60;;;;;;4997108;28;20413;-81
2021/03/13 11:11:24;;;;;;;3.40;1.70;;;10.40;92.70;;;;;;4997634;28;20460;-80
2021/03/13 11:13:50;;;;;;;2.20;1.60;;;10.40;92.80;;;;;;4998902;28;20460;-82
2021/03/13 11:16:15;;;;;;;6.67;2.13;;;10.40;92.90;;;;;;4998045;28;20436;-81
2021/03/13 11:18:41;;;;;;;5.10;1.83;;;10.50;93.00;;;;;;4998807;28;20224;-81
2021/03/13 11:21:07;;;;;;;2.07;1.80;;;10.60;92.40;;;;;;4996649;28;20174;-80
2021/03/13 11:23:33;;;;;;;4.53;2.20;;;10.70;92.00;;;;;;4996734;28;20177;-81
2021/03/13 11:25:58;;;;;;;6.97;1.70;;;10.80;91.80;;;;;;4997078;28;20197;-80
2021/03/13 11:28:24;;;;;;;8.40;2.57;;;10.90;91.10;;;;;;4996574;28;20257;-80
2021/03/13 11:30:50;;;;;;;6.93;2.53;;;11.00;90.90;;;;;;5000270;28;20252;-81
2021/03/13 11:33:16;;;;;;;4.20;1.77;;;11.30;91.30;;;;;;4998002;28;20178;-81
2021/03/13 11:35:42;;;;;;;6.87;2.30;;;11.40;89.80;;;;;;4998750;28;20202;-82
2021/03/13 11:38:08;;;;;;;7.10;1.77;;;11.60;90.00;;;;;;4998041;28;20413;-80
2021/03/13 11:40:34;;;;;;;6.70;2.20;;;11.90;89.10;;;;;;4999637;28;20423;-81
2021/03/13 11:43:00;;;;;;;3.70;1.70;;;12.20;88.60;;;;;;4998596;28;20174;-81
2021/03/13 11:45:29;;;;;;;4.83;1.57;;;12.30;87.60;;;;;;4996679;28;20205;-81
2021/03/13 11:47:56;;;;;;;6.27;1.63;;;12.20;87.50;;;;;;5012244;28;20469;-80
2021/03/13 11:50:25;;;;;;;9.13;1.90;;;12.20;87.80;;;;;;5015714;28;20524;-80
2021/03/13 11:52:54;;;;;;;5.97;2.10;;;12.20;87.70;;;;;;5015221;28;20412;-84
2021/03/13 11:55:20;;;;;;;4.30;1.40;;;12.20;87.60;;;;;;5015503;28;20440;-82
2021/03/13 11:57:46;;;;;;;5.20;1.50;;;12.10;87.30;;;;;;5017987;28;20419;-81
2021/03/13 12:00:12;;;;;;;5.80;1.97;;;12.30;87.70;;;;;;5017266;28;20423;-80
2021/03/13 12:02:38;;;;;;;4.77;1.83;;;12.40;87.10;;;;;;5015865;28;20232;-80
2021/03/13 12:05:08;;;;;;;3.93;1.37;;;12.20;87.10;;;;;;5017139;28;20484;-82
2021/03/13 12:07:35;;;;;;;8.87;1.57;;;12.20;87.30;;;;;;5015045;28;20431;-82
2021/03/13 12:10:02;;;;;;;3.10;1.57;;;12.20;87.60;;;;;;5014405;28;20482;-81
2021/03/13 12:12:28;;;;;;;4.60;1.93;;;12.10;87.50;;;;;;5015609;28;20474;-81
2021/03/13 12:14:53;;;;;;;4.07;1.67;;;11.90;88.00;;;;;;5016249;28;20486;-81
2021/03/13 12:17:19;;;;;;;9.50;1.93;;;11.80;88.00;;;;;;5019159;28;20180;-81
2021/03/13 12:19:46;;;;;;;3.13;1.70;;;11.80;88.50;;;;;;5020814;28;20185;-81
2021/03/13 12:22:11;;;;;;;4.07;1.63;;;11.70;88.80;;;;;;5018296;28;20193;-80
2021/03/13 12:24:37;;;;;;;2.17;1.70;;;11.70;88.60;;;;;;5018658;28;20447;-80
2021/03/13 12:27:09;;;;;;;4.50;1.83;;;11.70;88.60;;;;;;5019528;28;20219;-80
2021/03/13 12:29:35;;;;;;;1.20;1.10;;;11.70;88.40;;;;;;5019176;28;20459;-83
2021/03/13 12:32:01;;;;;;;2.30;1.37;;;11.60;88.80;;;;;;5020856;28;20550;-80
2021/03/13 12:34:27;;;;;;;2.73;1.50;;;11.60;89.00;;;;;;5018168;28;20832;-80
2021/03/13 12:36:52;;;;;;;1.30;1.20;;;11.60;88.90;;;;;;5019521;28;20181;-82
2021/03/13 12:39:19;;;;;;;1.50;1.40;;;11.70;89.10;;;;;;5019858;28;20243;-82
2021/03/13 12:41:46;;;;;;;4.23;1.50;;;11.70;88.90;;;;;;5021107;28;20187;-81
2021/03/13 12:44:13;;;;;;;3.03;1.30;;;11.60;88.80;;;;;;5021839;28;20427;-80
2021/03/13 12:46:39;;;;;;;1.87;1.47;;;11.60;88.70;;;;;;5013923;28;20425;-80
2021/03/13 12:49:05;;;;;;;1.87;1.60;;;11.60;89.00;;;;;;4998587;28;20429;-81
2021/03/13 12:51:30;;;;;;;4.13;1.67;;;11.60;88.90;;;;;;4999742;28;20496;-81
2021/03/13 12:53:56;;;;;;;5.47;1.70;;;11.60;88.90;;;;;;4999750;28;20423;-82
2021/03/13 12:56:22;;;;;;;5.17;1.50;;;11.60;89.30;;;;;;4999782;28;20260;-81
2021/03/13 12:58:49;;;;;;;7.80;2.10;;;11.50;89.20;;;;;;4999273;28;20181;-80
2021/03/13 13:01:15;;;;;;;4.40;1.57;;;11.50;89.20;;;;;;5000027;28;20181;-81
2021/03/13 13:03:40;;;;;;;6.23;2.10;;;11.50;89.30;;;;;;4999159;28;20798;-81
2021/03/13 13:06:06;;;;;;;6.40;1.87;;;11.50;89.30;;;;;;4998800;28;20242;-82